• Join FlightAware (Why Join?)
  • Login
  • US Flag 
06:22PM EDT


 

Airport Tracker/Info


-or-


 

Live Flight TrackerFlight Track Log ✈ AWE3390 ✈ 25-Jun-2013 ✈ KJAX - KCLT

Flight Track Log - Related Links

Times and Time Zones

All times are in EDT time to prevent confusion due to time zone crossing. See the AWE3390 flight status page for this flight to view local times or setup timezone preferences in your user account.

Time Position Orientation Groundspeed Altitude Reporting Facility
EDT Latitude Longitude Course Direction KTS MPH feet Rate Location/Type
10:42AM 30.4717 -81.6731 19° North 158 182 700  Level Jacksonville Center
10:43AM 30.5025 -81.6414 42° Northeast 232 267 2,200 2,280 Climbing Jacksonville Center
10:44AM 30.7104 -81.4375 46° Northeast  Level FlightAware Approximate
10:44AM 30.5714 -81.6331 North 259 298 5,200  Level Jacksonville Center
10:45AM 30.7826 -81.3509 46° Northeast  Level FlightAware Approximate
10:45AM 30.6486 -81.6250 North 276 318 8,600  Level Jacksonville Center
10:46AM 30.8584 -81.2800 19° North  Level FlightAware Approximate
10:47AM 30.9565 -81.2408 19° North  Level FlightAware Approximate
10:47AM 30.7800 -81.6231 North 306 352 12,100  Level Jacksonville Center
10:48AM 30.8742 -81.6339 354° North 319 367 14,600 2,460 Climbing Jacksonville Center
10:49AM 30.9700 -81.6061 14° North 333 383 17,100 2,220 Climbing Jacksonville Center
10:50AM 31.0678 -81.5731 16° North 344 396 19,100 1,920 Climbing Jacksonville Center
10:51AM 31.1675 -81.5353 18° North 358 412 21,000 1,740 Climbing Jacksonville Center
10:52AM 31.2717 -81.5047 14° North 370 426 22,600 1,620 Climbing Jacksonville Center
10:53AM 31.3858 -81.4592 19° North 382 440 24,300 1,500 Climbing Jacksonville Center
10:54AM 31.4878 -81.4089 23° Northeast 392 451 25,700 1,200 Climbing Jacksonville Center
10:55AM 31.5811 -81.3561 26° Northeast 397 457 26,800 1,140 Climbing Jacksonville Center
10:56AM 31.6950 -81.2958 24° Northeast 403 464 28,000 1,080 Climbing Jacksonville Center
10:57AM 31.7944 -81.2403 25° Northeast 421 484 29,000 480 Climbing Jacksonville Center
10:58AM 31.9211 -81.1719 25° Northeast 441 507 29,000  Level Jacksonville Center
10:59AM 32.0389 -81.0986 28° Northeast 464 534 29,000  Level Jacksonville Center
11:00AM 32.1633 -81.0322 24° Northeast 481 554 29,000  Level Jacksonville Center
11:01AM 32.2814 -80.9686 24° Northeast 475 547 29,000  Level Jacksonville Center
11:02AM 32.3889 -80.9072 26° Northeast 475 547 29,000  Level Jacksonville Center
11:03AM 32.5172 -80.8331 26° Northeast 475 547 29,000  Level Jacksonville Center
11:04AM 32.6392 -80.7661 25° Northeast 468 539 29,000  Level Jacksonville Center
11:05AM 32.7550 -80.6992 26° Northeast 463 533 29,000  Level Jacksonville Center
11:06AM 32.8728 -80.6319 26° Northeast 463 533 29,000  Level Jacksonville Center
11:07AM 32.9928 -80.5644 25° Northeast 463 533 29,000  Level Jacksonville Center
11:08AM 33.1144 -80.4969 25° Northeast 463 533 29,000  Level Jacksonville Center
11:09AM 33.2342 -80.4267 26° Northeast 468 539 29,000  Level Jacksonville Center
11:10AM 33.3539 -80.3586 25° Northeast 468 539 29,000 -120 Level Jacksonville Center
11:11AM 33.4508 -80.3011 26° Northeast 468 539 28,800 -1,320 Descending Jacksonville Center
11:12AM 33.5767 -80.2275 26° Northeast 463 533 26,400 -2,400 Descending Jacksonville Center
11:13AM 33.6881 -80.1644 25° Northeast 458 527 24,100 -1,620 Descending Jacksonville Center
11:14AM 33.7928 -80.0911 30° Northeast 440 506 23,200 -1,200 Descending Jacksonville Center
11:15AM 33.8978 -80.0303 26° Northeast 426 490 21,700 -1,500 Descending Jacksonville Center
11:16AM 34.0108 -80.0492 352° North 397 457 20,200 -1,560 Descending Jacksonville Center
11:17AM 34.1164 -80.0958 340° North 390 449 18,600 -1,500 Descending Jacksonville Center
11:18AM 34.2194 -80.1403 340° North 390 449 17,300 -1,440 Descending Jacksonville Center
11:19AM 34.3228 -80.1822 341° North 395 455 15,800 -1,500 Descending Jacksonville Center
11:20AM 34.4217 -80.2294 339° North 389 448 14,300 -1,500 Descending Jacksonville Center
11:21AM 34.5206 -80.2692 342° North 378 435 12,800 -1,560 Descending Jacksonville Center
11:22AM 34.6289 -80.3128 342° North 358 412 11,100 -900 Descending Atlanta Center
11:23AM 34.7203 -80.3669 334° Northwest 346 398 11,000 -60 Descending Atlanta Center
11:24AM 34.7939 -80.4572 315° West 351 404 11,000  Level Atlanta Center
11:25AM 34.8611 -80.5431 314° West 352 405 11,000  Level Atlanta Center
11:26AM 34.9303 -80.6286 315° West 353 406 11,000 -240 Level Atlanta Center
11:27AM 35.0036 -80.7219 314° West 354 407 10,600 -660 Descending Atlanta Center
11:28AM 35.0664 -80.8008 314° West 289 333 9,700 -840 Descending Atlanta Center
11:29AM 35.1356 -80.8158 350° North 288 331 9,000 -1,140 Descending Atlanta Center
11:30AM 35.2142 -80.7900 15° North 297 342 7,600 -1,500 Descending Atlanta Center
11:31AM 35.2728 -80.7139 47° Northeast 294 338 5,800 -1,740 Descending Atlanta Center
11:32AM 35.3300 -80.7547 330° Northwest 253 291 4,000 -1,620 Descending Atlanta Center